createdAt,value
2022-10-27T05:42:39.992Z,5.43
2022-10-27T05:45:08.878Z,6.28
2022-10-27T05:47:36.410Z,6.00
2022-10-27T05:50:04.140Z,6.57
2022-10-27T05:52:31.779Z,6.15
2022-10-27T05:54:59.432Z,5.45
2022-10-27T05:57:27.088Z,6.03
2022-10-27T05:59:54.783Z,5.75
2022-10-27T06:02:22.451Z,5.55
2022-10-27T06:04:50.259Z,5.50
2022-10-27T06:07:17.787Z,5.22
2022-10-27T06:09:45.490Z,5.38
2022-10-27T06:12:13.267Z,5.82
2022-10-27T06:14:40.950Z,4.85
2022-10-27T06:17:08.465Z,5.18
2022-10-27T06:19:36.113Z,5.45
2022-10-27T06:22:03.714Z,4.85
2022-10-27T06:24:31.560Z,5.38
2022-10-27T06:26:59.568Z,4.90
2022-10-27T06:29:27.327Z,5.25
2022-10-27T06:31:54.891Z,5.03
2022-10-27T06:34:22.559Z,5.15
2022-10-27T06:36:50.098Z,5.40
2022-10-27T06:39:17.733Z,5.43
2022-10-27T06:41:45.357Z,5.85
2022-10-27T06:44:21.102Z,5.00
2022-10-27T06:46:48.892Z,5.20
2022-10-27T06:49:17.733Z,6.10
2022-10-27T06:51:45.826Z,5.95
2022-10-27T06:54:13.723Z,6.57
2022-10-27T06:56:43.480Z,5.68
2022-10-27T06:59:12.192Z,5.68
2022-10-27T07:01:39.917Z,6.88
2022-10-27T07:04:11.464Z,6.38
2022-10-27T07:06:39.126Z,6.28
2022-10-27T07:09:09.704Z,6.03
2022-10-27T07:14:05.158Z,5.47
2022-10-27T07:16:34.910Z,6.72
2022-10-27T07:19:02.920Z,6.15
2022-10-27T07:21:30.511Z,6.43
2022-10-27T07:23:58.149Z,5.82
2022-10-27T07:26:25.718Z,5.47
2022-10-27T07:28:53.347Z,5.97
2022-10-27T07:31:25.536Z,6.07
2022-10-27T07:33:53.172Z,6.00
2022-10-27T07:36:20.945Z,6.47
2022-10-27T07:38:48.623Z,6.55
2022-10-27T07:41:16.158Z,5.97
2022-10-27T07:43:45.594Z,5.95
2022-10-27T07:46:13.243Z,6.20
2022-10-27T07:48:41.128Z,6.20
2022-10-27T07:51:08.670Z,6.35
2022-10-27T07:53:36.305Z,6.25
2022-10-27T07:56:03.981Z,6.07
2022-10-27T07:58:31.640Z,6.00
2022-10-27T08:01:00.656Z,5.40
2022-10-27T08:03:30.037Z,6.85
2022-10-27T08:06:03.232Z,5.70
2022-10-27T08:08:31.373Z,5.88
2022-10-27T08:11:02.405Z,5.05
2022-10-27T08:15:59.667Z,4.40
2022-10-27T08:18:27.549Z,4.28
2022-10-27T08:20:55.102Z,4.30
2022-10-27T08:23:24.664Z,4.43
2022-10-27T08:25:52.813Z,5.47
2022-10-27T08:28:20.544Z,5.80
2022-10-27T08:33:33.094Z,4.10
2022-10-27T08:36:00.960Z,4.22
2022-10-27T08:38:32.938Z,4.45
2022-10-27T08:41:26.932Z,4.95
2022-10-27T08:44:00.645Z,4.75
2022-10-27T08:46:48.560Z,4.22
2022-10-27T08:49:47.728Z,3.00
2022-10-27T08:52:28.568Z,4.00
2022-10-27T08:55:00.607Z,4.30
2022-10-27T09:00:01.757Z,4.57
2022-10-27T09:02:35.581Z,5.45
2022-10-27T09:05:20.465Z,4.97
2022-10-27T09:08:06.612Z,2.92
2022-10-27T09:11:01.640Z,3.28
2022-10-27T09:14:05.443Z,3.13
2022-10-27T09:16:45.404Z,4.13
2022-10-27T09:19:28.084Z,3.53
2022-10-27T09:21:55.789Z,3.67
2022-10-27T09:24:24.575Z,3.85
2022-10-27T09:26:52.155Z,3.90
2022-10-27T09:29:21.261Z,3.72
2022-10-27T09:31:53.586Z,2.72
2022-10-27T09:34:46.657Z,4.20
2022-10-27T09:37:15.444Z,3.20
2022-10-27T09:39:51.116Z,3.40
2022-10-27T09:42:18.823Z,3.55
2022-10-27T09:44:56.127Z,3.50
2022-10-27T09:47:24.066Z,3.42
2022-10-27T09:49:54.029Z,2.97
2022-10-27T09:55:51.653Z,2.88
2022-10-27T09:58:19.661Z,3.60
2022-10-27T10:00:58.890Z,3.10
2022-10-27T10:03:45.176Z,2.97
2022-10-27T10:06:25.352Z,3.55
2022-10-27T10:08:52.975Z,3.03
2022-10-27T10:11:23.605Z,3.60
2022-10-27T10:13:59.092Z,3.42
2022-10-27T10:16:28.596Z,3.38
2022-10-27T10:19:17.355Z,2.97
2022-10-27T10:21:52.669Z,3.50
2022-10-27T10:24:29.560Z,4.60
2022-10-27T10:26:58.238Z,3.40
2022-10-27T10:29:34.194Z,3.72
2022-10-27T10:32:20.513Z,4.13
2022-10-27T10:34:48.600Z,3.40
2022-10-27T10:37:39.907Z,3.05
2022-10-27T10:40:13.577Z,3.60
2022-10-27T10:42:44.238Z,4.18
2022-10-27T10:45:23.007Z,3.10
2022-10-27T10:47:59.406Z,4.00
2022-10-27T10:50:28.246Z,3.03
2022-10-27T10:52:57.804Z,3.85
2022-10-27T10:55:26.730Z,4.38
2022-10-27T10:57:55.430Z,3.97
2022-10-27T11:00:23.172Z,3.72
2022-10-27T11:02:59.277Z,3.50
2022-10-27T11:05:46.055Z,3.22
2022-10-27T11:08:23.388Z,3.95
2022-10-27T11:10:51.012Z,3.05
2022-10-27T11:13:43.446Z,3.53
2022-10-27T11:16:11.301Z,3.80
2022-10-27T11:18:54.674Z,3.72
2022-10-27T11:21:25.110Z,3.83
2022-10-27T11:23:53.607Z,4.20
2022-10-27T11:26:28.854Z,3.90
2022-10-27T11:29:24.254Z,4.13
2022-10-27T11:32:09.811Z,3.85
2022-10-27T11:35:07.201Z,3.70
2022-10-27T11:37:38.962Z,3.42
2022-10-27T11:40:19.086Z,3.90
2022-10-27T11:43:11.402Z,4.22
2022-10-27T11:45:57.217Z,4.10
2022-10-27T11:48:48.013Z,3.50
2022-10-27T11:51:20.601Z,3.55
2022-10-27T11:53:50.900Z,4.53
2022-10-27T11:56:22.076Z,3.63
2022-10-27T11:59:32.135Z,4.20
2022-10-27T12:02:23.813Z,3.70
2022-10-27T12:05:03.961Z,3.95
2022-10-27T12:07:44.677Z,3.92
2022-10-27T12:10:31.495Z,3.80
2022-10-27T12:13:11.316Z,3.80
2022-10-27T12:16:08.016Z,3.13
2022-10-27T12:18:48.085Z,3.85
2022-10-27T12:21:43.372Z,4.35
2022-10-27T12:24:23.540Z,3.45
2022-10-27T12:26:57.859Z,3.10
2022-10-27T12:29:29.284Z,4.05
2022-10-27T12:32:03.195Z,3.50
2022-10-27T12:34:33.669Z,3.90
2022-10-27T12:37:23.597Z,4.32
2022-10-27T12:39:51.353Z,2.92
2022-10-27T12:42:39.830Z,3.85
2022-10-27T12:45:27.254Z,3.72
2022-10-27T12:48:28.887Z,3.83
2022-10-27T12:51:03.288Z,4.10
2022-10-27T12:53:49.156Z,3.90
2022-10-27T12:56:29.522Z,4.00
2022-10-27T12:59:23.295Z,4.03
2022-10-27T13:02:10.352Z,4.40
2022-10-27T13:04:38.108Z,4.05
2022-10-27T13:07:24.242Z,4.05
2022-10-27T13:10:07.677Z,3.50
2022-10-27T13:13:00.174Z,4.20
2022-10-27T13:15:27.722Z,3.63
2022-10-27T13:18:19.989Z,4.18
2022-10-27T13:21:12.366Z,4.18
2022-10-27T13:24:08.879Z,4.40
2022-10-27T13:26:48.306Z,4.65
2022-10-27T13:29:48.686Z,4.40
2022-10-27T13:32:16.233Z,4.38
2022-10-27T13:35:00.706Z,4.78
2022-10-27T13:37:54.424Z,4.35
2022-10-27T13:40:22.027Z,4.72
2022-10-27T13:43:24.258Z,4.05
2022-10-27T13:45:55.541Z,4.45
2022-10-27T13:48:23.350Z,5.85
2022-10-27T13:50:52.202Z,4.45
2022-10-27T13:53:19.714Z,4.65
2022-10-27T13:55:51.285Z,5.07
2022-10-27T13:58:19.374Z,4.40
2022-10-27T14:01:44.605Z,4.32
2022-10-27T14:04:14.529Z,4.78
2022-10-27T14:06:43.351Z,3.55
2022-10-27T14:09:45.594Z,4.32
2022-10-27T14:12:36.634Z,4.00
2022-10-27T14:15:21.338Z,3.53
2022-10-27T14:17:51.216Z,3.80
2022-10-27T14:20:36.867Z,3.90
2022-10-27T14:23:14.406Z,3.60
2022-10-27T14:25:42.185Z,3.75
2022-10-27T14:28:29.208Z,3.72
2022-10-27T14:31:19.171Z,3.78
2022-10-27T14:33:47.471Z,4.40
2022-10-27T14:38:55.200Z,3.30
2022-10-27T14:41:24.731Z,4.03
2022-10-27T14:43:53.667Z,3.65
2022-10-27T14:46:22.836Z,4.38
2022-10-27T14:49:00.743Z,3.70
2022-10-27T14:51:47.083Z,3.60
2022-10-27T14:54:16.710Z,3.60
2022-10-27T14:56:44.521Z,3.83
2022-10-27T14:59:23.266Z,3.15
2022-10-27T15:01:51.244Z,3.40
2022-10-27T15:04:28.727Z,3.20
2022-10-27T15:06:57.591Z,2.90
2022-10-27T15:09:36.045Z,3.65
2022-10-27T15:12:16.081Z,4.30
2022-10-27T15:15:03.999Z,3.67
2022-10-27T15:17:33.021Z,3.65
2022-10-27T15:20:01.025Z,2.08
2022-10-27T15:22:28.728Z,3.05
2022-10-27T15:24:56.804Z,4.57
2022-10-27T15:27:24.397Z,3.92
2022-10-27T15:32:39.217Z,4.00
2022-10-27T15:35:26.593Z,3.45
2022-10-27T15:37:54.930Z,2.90
2022-10-27T15:40:47.427Z,3.33
2022-10-27T15:43:44.190Z,4.25
2022-10-27T15:46:31.470Z,4.13
2022-10-27T15:49:02.125Z,3.20
2022-10-27T15:51:50.256Z,3.25
2022-10-27T15:54:36.376Z,3.80
2022-10-27T15:57:06.053Z,4.65
2022-10-27T15:59:33.810Z,4.53
2022-10-27T16:02:21.065Z,3.92
2022-10-27T16:04:50.029Z,3.75
2022-10-27T16:07:17.831Z,3.85
2022-10-27T16:09:46.395Z,4.38
2022-10-27T16:12:14.744Z,4.15
2022-10-27T16:14:47.162Z,3.95
2022-10-27T16:17:18.251Z,4.95
2022-10-27T16:20:04.556Z,4.20
2022-10-27T16:22:51.703Z,5.03
2022-10-27T16:25:21.084Z,4.68
2022-10-27T16:27:48.990Z,4.75
2022-10-27T16:30:18.520Z,4.47
2022-10-27T16:32:47.717Z,5.10
2022-10-27T16:35:16.688Z,3.88
2022-10-27T16:37:44.551Z,4.82
2022-10-27T16:40:16.048Z,5.18
2022-10-27T16:43:04.461Z,4.78
2022-10-27T16:45:50.514Z,4.80
